Latest Coastal Weather Observations for Carnarvon

IDW60701

Issued at 8:03 am WST Thursday 8 December 2016 (issued every 10 minutes, with the page automatically refreshed every 10 minutes)

About coastal observations | Map of coastal stations | Coastal observations for WA | Marine services | Other Formats
Station Details ID: 006011 Name: CARNARVON AIRPORT Lat: -24.89 Lon: 113.67 Height: 4.0 m
Data from the previous 72 hours. | See also: Recent months at Carnarvon
Date/Time
WST
Temp
°C
Wind Pressure Rain since
9am
mm
Weather Cloud Vis
km
Sea
Height
m
Swell
Dir  Spd
kts
Gust
kts
hPa Trend Height
m
Period
s
Dir
08/08:00am 26.4 SSE 12 15 1011.0 - 0.0 - - - - - - -
08/07:30am 24.4 SSE 14 18 1011.1 - 0.0 - - - - - - -
08/07:00am 23.4 SSE 12 16 1010.9 - 0.0 - - - - - - -
08/06:30am 21.8 S 11 13 1010.8 - 0.0 - - - - - - -
08/06:00am 20.8 S 10 13 1010.9 - 0.0 - - - - - - -
08/05:30am 20.3 S 11 14 1010.6 - 0.0 - - - - - - -
08/05:00am 20.4 S 11 15 1010.5 - 0.0 - - - - - - -
08/04:30am 20.2 S 9 12 1010.6 - 0.0 - - - - - - -
08/04:00am 20.2 SSE 9 12 1010.7 - 0.0 - - - - - - -
08/03:30am 20.5 S 10 12 1010.5 - 0.0 - - - - - - -
08/03:00am 20.8 S 12 15 1010.4 - 0.0 - - - - - - -
08/02:30am 21.0 SSE 9 11 1010.7 - 0.0 - - - - - - -
08/02:00am 21.4 S 13 17 1010.2 - 0.0 - - - - - - -
08/01:30am 21.5 S 19 25 1009.4 - 0.0 - - - - - - -
08/01:00am 21.7 S 16 22 1010.3 - 0.0 - - - - - - -
08/12:30am 21.8 S 17 22 1010.5 - 0.0 - - - - - - -
08/12:00am 21.8 S 16 22 1010.7 - 0.0 - - - - - - -
 
Date/Time
WST
Temp
°C
Wind Pressure Rain since
9am
mm
Weather Cloud Vis
km
Sea
Height
m
Swell
Dir  Spd
kts
Gust
kts
hPa Trend Height
m
Period
s
Dir
07/11:30pm 21.9 S 16 23 1011.1 - 0.0 - - - - - - -
07/11:00pm 22.0 S 16 21 1011.5 - 0.0 - - - - - - -
07/10:30pm 22.0 S 14 20 1011.8 - 0.0 - - - - - - -
07/10:00pm 22.2 S 15 20 1011.8 - 0.0 - - - - - - -
07/09:30pm 22.6 S 16 21 1011.6 - 0.0 - - - - - - -
07/09:00pm 22.8 S 17 23 1011.3 - 0.0 - - - - - - -
07/08:30pm 23.2 S 18 25 1011.1 - 0.0 - - - - - - -
07/08:00pm 23.1 SSW 18 22 1010.8 - 0.0 - - - - - - -
07/07:30pm 23.2 SSW 17 24 1010.7 - 0.0 - - - - - - -
07/07:00pm 23.6 SSW 18 23 1010.3 - 0.0 - - - - - - -
07/06:30pm 24.1 SSW 18 23 1010.0 - 0.0 - - - - - - -
07/06:00pm 24.6 SSW 18 23 1009.9 - 0.0 - - - - - - -
07/05:30pm 25.1 SSW 17 22 1009.9 - 0.0 - - - - - - -
07/05:00pm 26.1 SSW 17 22 1010.0 - 0.0 - - - - - - -
07/04:30pm 25.9 SSW 17 22 1010.1 - 0.0 - - - - - - -
07/04:00pm 25.9 SSW 18 21 1010.4 - 0.0 - - - - - - -
07/03:30pm 27.0 SSW 19 24 1010.7 - 0.0 - - - - - - -
07/03:00pm 28.0 S 20 24 1010.7 - 0.0 Fine Clear 30 - - - -
07/02:30pm 26.5 S 21 25 1010.9 - 0.0 - - - - - - -
07/02:00pm 27.0 S 20 24 1011.3 - 0.0 - - - - - - -
07/01:30pm 27.6 S 20 26 1011.5 - 0.0 - - - - - - -
07/01:00pm 26.9 S 21 25 1011.9 - 0.0 - - - - - - -
07/12:30pm 26.7 S 21 27 1012.3 - 0.0 - - - - - - -
07/12:00pm 25.3 S 21 27 1012.6 - 0.0 - - - - - - -
07/11:30am 25.8 S 20 24 1012.9 - 0.0 - - - - - - -
07/11:00am 26.3 S 19 24 1013.2 - 0.0 - - - - - - -
07/10:30am 25.1 S 19 24 1013.4 - 0.0 - - - - - - -
07/10:00am 25.0 S 18 25 1013.5 - 0.0 - - - - - - -
07/09:30am 24.0 S 19 24 1013.7 - 0.0 - - - - - - -
07/09:00am 23.0 SSE 17 24 1013.9 - 0.0 Fine Clear 29 - - - -
07/08:43am 23.1 SSE 19 29 1014.0 - - - - - - - - -
07/08:30am 22.7 SSE 18 24 1014.0 - - - - - - - - -
07/08:00am 21.9 SSE 20 25 1014.1 - - - - - - - - -
07/07:30am 21.2 SSE 20 26 1014.0 - - - - - - - - -
07/07:00am 20.3 SSE 16 23 1014.2 - - - - - - - - -
07/06:30am 19.7 SSE 15 20 1013.8 - - - - - - - - -
07/06:00am 19.2 SSE 15 19 1013.5 - - - - - - - - -
07/05:30am 19.0 SSE 12 17 1013.4 - - - Partly cloudy - - - - -
07/05:00am 19.1 S 14 21 1012.9 - - - - - - - - -
07/04:30am 19.2 SSE 15 19 1012.6 - - - - - - - - -
07/04:00am 19.7 SSE 16 21 1011.9 - - - - - - - - -
07/03:30am 19.9 SSE 19 25 1011.3 - - - - - - - - -
07/03:00am 20.2 S 19 26 1010.8 - - - - - - - - -
07/02:30am 20.5 S 19 27 1011.1 - - - - - - - - -
07/02:00am 20.7 S 17 24 1010.9 - - - - - - - - -
07/01:30am 20.8 S 19 24 1010.8 - - - - - - - - -
07/01:00am 21.0 S 19 24 1010.8 - - - - - - - - -
07/12:30am 21.0 S 18 24 1010.9 - - - - - - - - -
07/12:00am 21.3 S 19 25 1011.2 - - - - - - - - -
 
Date/Time
WST
Temp
°C
Wind Pressure Rain since
9am
mm
Weather Cloud Vis
km
Sea
Height
m
Swell
Dir  Spd
kts
Gust
kts
hPa Trend Height
m
Period
s
Dir
06/11:30pm 21.4 S 20 25 1011.3 - - - - - - - - -
06/11:00pm 21.5 S 19 25 1011.5 - - - - - - - - -
06/10:30pm 21.7 S 20 25 1011.3 - - - - - - - - -
06/10:00pm 21.9 S 18 27 1011.3 - - - - - - - - -
06/09:54pm 21.9 S 17 27 1011.3 - - - - - - - - -
06/09:30pm 22.1 S 20 28 1011.3 - - - - - - - - -
06/09:00pm 22.4 S 20 27 1011.1 - - - - - - - - -
06/08:50pm 22.7 S 20 31 1011.0 - - - - - - - - -
06/08:30pm 23.0 S 22 28 1010.9 - - - - - - - - -
06/08:00pm 23.7 S 22 28 1010.4 - - - - - - - - -
06/07:30pm 24.0 S 19 25 1010.0 - - - - - - - - -
06/07:00pm 23.8 S 20 27 1009.6 - - - - - - - - -
06/06:30pm 24.3 SSW 20 26 1009.2 - - - - - - - - -
06/06:00pm 25.0 SSW 18 25 1009.0 - - - - - - - - -
06/05:30pm 25.3 SSW 20 26 1008.9 - - - - - - - - -
06/05:00pm 26.1 SSW 18 23 1008.8 - - - - - - - - -
06/04:30pm 26.3 SSW 18 23 1008.9 - - - - - - - - -
06/04:00pm - - - - - - - - - - - - - -
06/03:30pm - - - - - - - - - - - - - -
06/03:00pm - - - - - - - Fine Clear 30 - - - -
06/02:30pm 27.4 - 17 21 1010.0 - 0.0 - - - - - - -
06/02:00pm 28.6 - 18 23 1010.2 - 0.0 - - - - - - -
06/01:30pm 27.1 - 19 25 1010.6 - 0.0 - - - - - - -
06/01:00pm 25.6 - 20 25 1010.8 - 0.0 - - - - - - -
06/12:30pm 25.3 - 19 23 1011.2 - 0.0 - - - - - - -
06/12:00pm 24.9 - 19 24 1011.4 - 0.0 - - - - - - -
06/11:30am 25.6 - 18 22 1011.6 - 0.0 - - - - - - -
06/11:00am 26.5 - 16 21 1011.9 - 0.0 - - - - - - -
06/10:30am 27.7 - 13 20 1011.9 - 0.0 - - - - - - -
06/10:00am 26.5 - 15 19 1012.2 - 0.0 - - - - - - -
06/09:30am 24.7 - 15 19 1012.6 - 0.0 - - - - - - -
06/09:00am 24.6 - 15 21 1012.8 - 0.0 Fine Clear 28 - - - -
06/08:30am 23.0 - 16 20 1013.0 - 0.0 - - - - - - -
06/08:00am 22.0 - 16 21 1012.8 - 0.0 - - - - - - -
06/07:30am 21.3 - 19 23 1012.8 - 0.0 - - - - - - -
06/07:00am 20.7 - 15 19 1012.9 - 0.0 - - - - - - -
06/06:30am 20.0 - 14 18 1012.8 - 0.0 - - - - - - -
06/06:00am 18.5 - 8 10 1012.5 - 0.0 - - - - - - -
06/05:30am 18.0 - 9 11 1012.2 - 0.0 - - - - - - -
06/05:00am 18.7 - 11 15 1011.9 - 0.0 - - - - - - -
06/04:30am 18.8 - 11 14 1011.8 - 0.0 - - - - - - -
06/04:00am 18.8 - 10 13 1011.7 - 0.0 - - - - - - -
06/03:30am 19.0 - 12 16 1011.8 - 0.0 - - - - - - -
06/03:00am 19.4 - 15 22 1011.9 - 0.0 - - - - - - -
06/02:30am 19.6 - 15 21 1011.8 - 0.0 - - - - - - -
06/02:00am 19.4 - 16 20 1011.8 - 0.0 - - - - - - -
06/01:30am 19.4 - 17 22 1011.8 - 0.0 - - - - - - -
06/01:00am 19.8 - 18 27 1011.7 - 0.0 - - - - - - -
06/12:30am 20.2 - 21 27 1011.9 - 0.0 - - - - - - -
06/12:09am 20.4 - 19 29 1012.0 - 0.0 - - - - - - -
06/12:00am 20.6 - 22 29 1011.9 - 0.0 - - - - - - -
 
Date/Time
WST
Temp
°C
Wind Pressure Rain since
9am
mm
Weather Cloud Vis
km
Sea
Height
m
Swell
Dir  Spd
kts
Gust
kts
hPa Trend Height
m
Period
s
Dir
05/11:36pm 20.6 - 20 30 1012.1 - 0.0 - - - - - - -
05/11:30pm 20.6 - 21 30 1012.0 - 0.0 - - - - - - -
05/11:00pm 20.8 - 21 30 1012.1 - 0.0 - - - - - - -
05/10:30pm 20.9 - 20 26 1012.1 - 0.0 - - - - - - -
05/10:00pm 21.0 - 21 28 1011.7 - 0.0 - - - - - - -
05/09:30pm 21.1 - 21 27 1011.8 - 0.0 - - - - - - -
05/09:24pm 21.1 - 21 31 1011.8 - 0.0 - - - - - - -
05/09:00pm 21.3 - 20 27 1011.8 - 0.0 - - - - - - -
05/08:30pm 21.7 - 21 26 1011.7 - 0.0 - - - - - - -
05/08:00pm 22.0 - 21 28 1011.5 - 0.0 - - - - - - -
05/07:30pm 22.5 - 19 24 1011.2 - 0.0 - - - - - - -
05/07:00pm 22.4 - 21 27 1010.8 - 0.0 - - - - - - -
05/06:30pm 22.9 - 22 28 1010.4 - 0.0 - - - - - - -
05/06:00pm 23.2 - 23 29 1010.1 - 0.0 - - - - - - -
05/05:30pm 23.7 - 24 33 1009.8 - 0.0 - - - - - - -
05/05:27pm 23.5 - 23 33 1009.8 - 0.0 - - - - - - -
05/05:00pm 23.8 - 24 31 1009.7 - 0.0 - - - - - - -
05/04:30pm 24.9 - 22 29 1009.8 - 0.0 - - - - - - -
05/04:00pm 24.3 - 22 27 1009.9 - 0.0 - - - - - - -
05/03:30pm 25.7 - 20 25 1010.1 - 0.0 - - - - - - -
05/03:00pm 25.5 - 20 25 1010.2 - 0.0 Fine Mostly clear 30 - - - -
05/02:30pm 25.9 - 18 23 1010.5 - 0.0 - - - - - - -
05/02:00pm 26.2 - 17 20 1010.8 - 0.0 - - - - - - -
05/01:30pm 26.1 - 18 23 1011.1 - 0.0 - - - - - - -
05/01:00pm 26.1 - 17 23 1011.2 - 0.0 - - - - - - -
05/12:30pm 25.4 - 19 24 1011.4 - 0.0 - - - - - - -
05/12:00pm 26.0 - 19 24 1011.7 - 0.0 - - - - - - -
05/11:30am 25.0 - 20 26 1012.0 - 0.0 - - - - - - -
05/11:00am 24.7 - 20 26 1012.2 - 0.0 - - - - - - -
05/10:30am 23.8 - 19 24 1012.3 - 0.0 - - - - - - -
05/10:00am 23.9 - 22 30 1012.6 - 0.0 - Partly cloudy - - - - -
05/09:59am 24.6 - 23 32 1012.6 - 0.0 - Partly cloudy - - - - -
05/09:30am 19.5 - 22 31 1012.8 - 0.0 - Partly cloudy - - - - -
05/09:22am 17.5 - 22 28 1012.7 - 0.0 - Partly cloudy - - - - -
05/09:00am 22.7 - 22 29 1012.7 - 0.0 Fine Partly cloudy 25 - - - -
05/08:30am 21.5 - 22 29 1012.9 - 0.0 - Partly cloudy - - - - -

Other Formats:

Comma delimited format used in spreadsheet applications
http://www.bom.gov.au/fwo/IDW60701/IDW60701.94300.axf

JavaScript Object Notation format (JSON) in row-major order
http://www.bom.gov.au/fwo/IDW60701/IDW60701.94300.json